sensor_id;sensor_type;location;lat;lon;timestamp;P1;durP1;ratioP1;P2;durP2;ratioP2
70169;SDS011;57543;45.442;9.212;2022-07-30T00:01:45;23.23;;;14.13;;
70169;SDS011;57543;45.442;9.212;2022-07-30T00:04:48;25.67;;;14.95;;
70169;SDS011;57543;45.442;9.212;2022-07-30T00:07:52;22.70;;;14.10;;
70169;SDS011;57543;45.442;9.212;2022-07-30T00:10:56;19.85;;;11.68;;
70169;SDS011;57543;45.442;9.212;2022-07-30T00:14:00;27.02;;;15.05;;
70169;SDS011;57543;45.442;9.212;2022-07-30T00:17:04;25.02;;;13.77;;
70169;SDS011;57543;45.442;9.212;2022-07-30T00:20:07;23.20;;;13.68;;
70169;SDS011;57543;45.442;9.212;2022-07-30T00:23:11;25.70;;;14.55;;
70169;SDS011;57543;45.442;9.212;2022-07-30T00:26:15;23.90;;;13.77;;
70169;SDS011;57543;45.442;9.212;2022-07-30T00:29:19;23.92;;;13.77;;
70169;SDS011;57543;45.442;9.212;2022-07-30T00:32:23;28.67;;;15.98;;
70169;SDS011;57543;45.442;9.212;2022-07-30T00:35:26;28.70;;;16.20;;
70169;SDS011;57543;45.442;9.212;2022-07-30T00:38:30;26.63;;;15.23;;
70169;SDS011;57543;45.442;9.212;2022-07-30T00:41:33;31.52;;;17.60;;
70169;SDS011;57543;45.442;9.212;2022-07-30T00:44:40;27.50;;;15.20;;
70169;SDS011;57543;45.442;9.212;2022-07-30T00:47:43;27.05;;;15.38;;
70169;SDS011;57543;45.442;9.212;2022-07-30T00:50:47;29.00;;;15.73;;
70169;SDS011;57543;45.442;9.212;2022-07-30T00:53:51;27.55;;;15.70;;
70169;SDS011;57543;45.442;9.212;2022-07-30T00:56:55;26.65;;;15.43;;
70169;SDS011;57543;45.442;9.212;2022-07-30T00:59:59;27.37;;;15.33;;
70169;SDS011;57543;45.442;9.212;2022-07-30T01:03:02;27.05;;;13.60;;
70169;SDS011;57543;45.442;9.212;2022-07-30T01:06:07;29.75;;;15.38;;
70169;SDS011;57543;45.442;9.212;2022-07-30T01:09:11;30.13;;;16.83;;
70169;SDS011;57543;45.442;9.212;2022-07-30T01:12:16;29.10;;;15.90;;
70169;SDS011;57543;45.442;9.212;2022-07-30T01:15:23;29.63;;;15.53;;
70169;SDS011;57543;45.442;9.212;2022-07-30T01:18:28;28.35;;;14.88;;
70169;SDS011;57543;45.442;9.212;2022-07-30T01:22:01;27.42;;;15.00;;
70169;SDS011;57543;45.442;9.212;2022-07-30T01:25:16;28.67;;;14.98;;
70169;SDS011;57543;45.442;9.212;2022-07-30T01:28:32;28.30;;;14.40;;
70169;SDS011;57543;45.442;9.212;2022-07-30T01:31:38;25.27;;;13.70;;
70169;SDS011;57543;45.442;9.212;2022-07-30T01:34:43;26.05;;;14.05;;
70169;SDS011;57543;45.442;9.212;2022-07-30T01:37:49;24.80;;;13.77;;
70169;SDS011;57543;45.442;9.212;2022-07-30T01:40:55;27.35;;;15.05;;
70169;SDS011;57543;45.442;9.212;2022-07-30T01:43:59;24.70;;;13.38;;
70169;SDS011;57543;45.442;9.212;2022-07-30T01:47:05;23.73;;;13.40;;
70169;SDS011;57543;45.442;9.212;2022-07-30T01:50:12;21.25;;;11.90;;
70169;SDS011;57543;45.442;9.212;2022-07-30T01:53:18;19.17;;;10.98;;
70169;SDS011;57543;45.442;9.212;2022-07-30T01:56:25;20.67;;;11.95;;
70169;SDS011;57543;45.442;9.212;2022-07-30T01:59:31;21.88;;;11.48;;
70169;SDS011;57543;45.442;9.212;2022-07-30T02:02:36;17.50;;;10.93;;
70169;SDS011;57543;45.442;9.212;2022-07-30T02:05:44;17.60;;;10.18;;
70169;SDS011;57543;45.442;9.212;2022-07-30T02:08:57;17.50;;;10.45;;
70169;SDS011;57543;45.442;9.212;2022-07-30T02:12:06;15.50;;;9.70;;
70169;SDS011;57543;45.442;9.212;2022-07-30T02:15:40;17.05;;;9.38;;
70169;SDS011;57543;45.442;9.212;2022-07-30T02:18:54;17.93;;;9.20;;
70169;SDS011;57543;45.442;9.212;2022-07-30T02:22:05;17.73;;;9.93;;
70169;SDS011;57543;45.442;9.212;2022-07-30T02:25:16;16.83;;;10.23;;
70169;SDS011;57543;45.442;9.212;2022-07-30T02:28:23;16.20;;;9.07;;
70169;SDS011;57543;45.442;9.212;2022-07-30T02:31:28;17.10;;;9.95;;
70169;SDS011;57543;45.442;9.212;2022-07-30T02:34:35;16.80;;;9.20;;
70169;SDS011;57543;45.442;9.212;2022-07-30T02:37:41;15.30;;;8.60;;
70169;SDS011;57543;45.442;9.212;2022-07-30T02:40:47;17.52;;;9.15;;
70169;SDS011;57543;45.442;9.212;2022-07-30T02:43:52;15.13;;;8.52;;
70169;SDS011;57543;45.442;9.212;2022-07-30T02:46:58;14.63;;;8.55;;
70169;SDS011;57543;45.442;9.212;2022-07-30T02:50:26;16.23;;;9.17;;
70169;SDS011;57543;45.442;9.212;2022-07-30T02:53:31;17.60;;;9.20;;
70169;SDS011;57543;45.442;9.212;2022-07-30T02:56:36;16.88;;;10.05;;
70169;SDS011;57543;45.442;9.212;2022-07-30T02:59:41;15.63;;;8.40;;
70169;SDS011;57543;45.442;9.212;2022-07-30T03:02:48;14.35;;;8.48;;
70169;SDS011;57543;45.442;9.212;2022-07-30T03:05:55;13.63;;;7.87;;
70169;SDS011;57543;45.442;9.212;2022-07-30T03:09:00;16.23;;;8.57;;
70169;SDS011;57543;45.442;9.212;2022-07-30T03:12:06;15.23;;;9.38;;
70169;SDS011;57543;45.442;9.212;2022-07-30T03:15:11;16.23;;;8.85;;
70169;SDS011;57543;45.442;9.212;2022-07-30T03:18:17;16.05;;;9.13;;
70169;SDS011;57543;45.442;9.212;2022-07-30T03:21:22;17.55;;;9.35;;
70169;SDS011;57543;45.442;9.212;2022-07-30T03:24:30;13.85;;;8.82;;
70169;SDS011;57543;45.442;9.212;2022-07-30T03:27:36;16.05;;;9.50;;
70169;SDS011;57543;45.442;9.212;2022-07-30T03:30:40;15.13;;;9.05;;
70169;SDS011;57543;45.442;9.212;2022-07-30T03:33:46;13.20;;;8.55;;
70169;SDS011;57543;45.442;9.212;2022-07-30T03:36:51;15.88;;;10.07;;
70169;SDS011;57543;45.442;9.212;2022-07-30T03:39:56;14.55;;;8.90;;
70169;SDS011;57543;45.442;9.212;2022-07-30T03:43:03;15.68;;;9.98;;
70169;SDS011;57543;45.442;9.212;2022-07-30T03:46:08;17.52;;;10.25;;
70169;SDS011;57543;45.442;9.212;2022-07-30T03:49:16;17.98;;;10.60;;
70169;SDS011;57543;45.442;9.212;2022-07-30T03:52:26;18.83;;;11.52;;
70169;SDS011;57543;45.442;9.212;2022-07-30T03:55:33;21.23;;;13.02;;
70169;SDS011;57543;45.442;9.212;2022-07-30T03:58:57;18.17;;;11.75;;
70169;SDS011;57543;45.442;9.212;2022-07-30T04:02:01;20.83;;;12.60;;
70169;SDS011;57543;45.442;9.212;2022-07-30T04:05:24;19.02;;;11.15;;
70169;SDS011;57543;45.442;9.212;2022-07-30T04:08:29;18.98;;;11.70;;
70169;SDS011;57543;45.442;9.212;2022-07-30T04:11:33;19.42;;;12.18;;
70169;SDS011;57543;45.442;9.212;2022-07-30T04:14:42;21.35;;;12.38;;
70169;SDS011;57543;45.442;9.212;2022-07-30T04:17:48;20.95;;;12.10;;
70169;SDS011;57543;45.442;9.212;2022-07-30T04:20:58;21.40;;;12.40;;
70169;SDS011;57543;45.442;9.212;2022-07-30T04:24:02;18.43;;;11.27;;
70169;SDS011;57543;45.442;9.212;2022-07-30T04:27:07;21.65;;;12.93;;
70169;SDS011;57543;45.442;9.212;2022-07-30T04:30:12;22.52;;;13.55;;
70169;SDS011;57543;45.442;9.212;2022-07-30T04:33:16;20.92;;;12.95;;
70169;SDS011;57543;45.442;9.212;2022-07-30T04:36:58;20.65;;;12.90;;
70169;SDS011;57543;45.442;9.212;2022-07-30T04:40:02;22.23;;;13.32;;
70169;SDS011;57543;45.442;9.212;2022-07-30T04:43:07;20.17;;;12.27;;
70169;SDS011;57543;45.442;9.212;2022-07-30T04:46:13;19.98;;;11.77;;
70169;SDS011;57543;45.442;9.212;2022-07-30T04:49:17;19.20;;;11.80;;
70169;SDS011;57543;45.442;9.212;2022-07-30T04:52:22;17.48;;;11.02;;
70169;SDS011;57543;45.442;9.212;2022-07-30T04:55:28;19.77;;;12.13;;
70169;SDS011;57543;45.442;9.212;2022-07-30T04:58:34;22.20;;;14.18;;
70169;SDS011;57543;45.442;9.212;2022-07-30T05:01:39;20.27;;;12.45;;
70169;SDS011;57543;45.442;9.212;2022-07-30T05:04:44;19.48;;;13.05;;
70169;SDS011;57543;45.442;9.212;2022-07-30T05:07:49;22.58;;;14.05;;
70169;SDS011;57543;45.442;9.212;2022-07-30T05:10:53;19.00;;;12.90;;
70169;SDS011;57543;45.442;9.212;2022-07-30T05:13:58;19.30;;;11.40;;
70169;SDS011;57543;45.442;9.212;2022-07-30T05:17:02;19.65;;;12.73;;
70169;SDS011;57543;45.442;9.212;2022-07-30T05:20:05;26.95;;;13.25;;
70169;SDS011;57543;45.442;9.212;2022-07-30T05:23:27;18.27;;;12.05;;
70169;SDS011;57543;45.442;9.212;2022-07-30T05:26:41;31.43;;;11.93;;
70169;SDS011;57543;45.442;9.212;2022-07-30T05:29:47;22.42;;;14.27;;
70169;SDS011;57543;45.442;9.212;2022-07-30T05:32:55;19.63;;;12.20;;
70169;SDS011;57543;45.442;9.212;2022-07-30T05:35:58;18.95;;;12.45;;
70169;SDS011;57543;45.442;9.212;2022-07-30T05:39:03;19.70;;;13.60;;
70169;SDS011;57543;45.442;9.212;2022-07-30T05:42:32;22.58;;;13.65;;
70169;SDS011;57543;45.442;9.212;2022-07-30T05:45:36;22.13;;;14.05;;
70169;SDS011;57543;45.442;9.212;2022-07-30T05:48:40;17.27;;;11.10;;
70169;SDS011;57543;45.442;9.212;2022-07-30T05:51:44;18.33;;;10.35;;
70169;SDS011;57543;45.442;9.212;2022-07-30T05:54:48;22.30;;;14.13;;
70169;SDS011;57543;45.442;9.212;2022-07-30T05:58:15;19.13;;;11.77;;
70169;SDS011;57543;45.442;9.212;2022-07-30T06:01:18;17.63;;;11.75;;
70169;SDS011;57543;45.442;9.212;2022-07-30T06:04:21;18.13;;;10.45;;
70169;SDS011;57543;45.442;9.212;2022-07-30T06:07:30;16.92;;;10.88;;
70169;SDS011;57543;45.442;9.212;2022-07-30T06:10:36;20.33;;;12.15;;
70169;SDS011;57543;45.442;9.212;2022-07-30T06:13:40;20.00;;;12.57;;
70169;SDS011;57543;45.442;9.212;2022-07-30T06:16:44;17.52;;;11.80;;
70169;SDS011;57543;45.442;9.212;2022-07-30T06:19:49;17.67;;;12.15;;
70169;SDS011;57543;45.442;9.212;2022-07-30T06:22:53;19.02;;;11.45;;
70169;SDS011;57543;45.442;9.212;2022-07-30T06:26:03;19.67;;;11.60;;
70169;SDS011;57543;45.442;9.212;2022-07-30T06:29:07;15.93;;;9.73;;
70169;SDS011;57543;45.442;9.212;2022-07-30T06:32:11;17.13;;;11.10;;
70169;SDS011;57543;45.442;9.212;2022-07-30T06:35:15;15.50;;;10.05;;
70169;SDS011;57543;45.442;9.212;2022-07-30T06:38:19;16.27;;;10.45;;
70169;SDS011;57543;45.442;9.212;2022-07-30T06:41:33;17.67;;;10.07;;
70169;SDS011;57543;45.442;9.212;2022-07-30T06:44:37;16.33;;;10.33;;
70169;SDS011;57543;45.442;9.212;2022-07-30T06:47:41;14.90;;;8.55;;
70169;SDS011;57543;45.442;9.212;2022-07-30T06:50:45;15.75;;;9.60;;
70169;SDS011;57543;45.442;9.212;2022-07-30T06:53:49;16.92;;;9.45;;
70169;SDS011;57543;45.442;9.212;2022-07-30T06:56:53;13.75;;;9.07;;
70169;SDS011;57543;45.442;9.212;2022-07-30T06:59:57;11.38;;;7.40;;
70169;SDS011;57543;45.442;9.212;2022-07-30T07:03:12;13.60;;;9.07;;
70169;SDS011;57543;45.442;9.212;2022-07-30T07:06:17;12.77;;;8.70;;
70169;SDS011;57543;45.442;9.212;2022-07-30T07:09:21;13.07;;;7.75;;
70169;SDS011;57543;45.442;9.212;2022-07-30T07:12:34;11.98;;;6.30;;
70169;SDS011;57543;45.442;9.212;2022-07-30T07:15:38;16.80;;;8.77;;
70169;SDS011;57543;45.442;9.212;2022-07-30T07:18:46;11.90;;;7.20;;
70169;SDS011;57543;45.442;9.212;2022-07-30T07:21:50;13.20;;;7.95;;
70169;SDS011;57543;45.442;9.212;2022-07-30T07:24:54;10.88;;;6.88;;
70169;SDS011;57543;45.442;9.212;2022-07-30T07:28:02;11.25;;;6.97;;
70169;SDS011;57543;45.442;9.212;2022-07-30T07:31:07;10.32;;;6.10;;
70169;SDS011;57543;45.442;9.212;2022-07-30T07:34:12;10.93;;;5.80;;
70169;SDS011;57543;45.442;9.212;2022-07-30T07:37:16;9.73;;;5.07;;
70169;SDS011;57543;45.442;9.212;2022-07-30T07:40:20;7.75;;;4.40;;
70169;SDS011;57543;45.442;9.212;2022-07-30T07:43:24;8.38;;;4.40;;
70169;SDS011;57543;45.442;9.212;2022-07-30T07:46:29;6.85;;;3.63;;
70169;SDS011;57543;45.442;9.212;2022-07-30T07:49:32;5.97;;;3.72;;
70169;SDS011;57543;45.442;9.212;2022-07-30T07:52:37;6.75;;;3.85;;
70169;SDS011;57543;45.442;9.212;2022-07-30T07:55:41;6.93;;;3.58;;
70169;SDS011;57543;45.442;9.212;2022-07-30T07:58:45;7.28;;;4.00;;
70169;SDS011;57543;45.442;9.212;2022-07-30T08:01:49;6.75;;;3.88;;
70169;SDS011;57543;45.442;9.212;2022-07-30T08:05:22;5.95;;;3.30;;
70169;SDS011;57543;45.442;9.212;2022-07-30T08:08:36;6.00;;;3.28;;
70169;SDS011;57543;45.442;9.212;2022-07-30T08:12:00;6.18;;;2.92;;
70169;SDS011;57543;45.442;9.212;2022-07-30T08:15:25;6.40;;;3.72;;
70169;SDS011;57543;45.442;9.212;2022-07-30T08:18:40;6.63;;;3.53;;
70169;SDS011;57543;45.442;9.212;2022-07-30T08:21:52;5.53;;;2.85;;
70169;SDS011;57543;45.442;9.212;2022-07-30T08:24:56;7.30;;;3.85;;
70169;SDS011;57543;45.442;9.212;2022-07-30T08:28:00;5.90;;;3.70;;
70169;SDS011;57543;45.442;9.212;2022-07-30T08:31:05;9.27;;;4.50;;
70169;SDS011;57543;45.442;9.212;2022-07-30T08:34:09;8.70;;;4.03;;
70169;SDS011;57543;45.442;9.212;2022-07-30T08:37:13;5.75;;;2.78;;
70169;SDS011;57543;45.442;9.212;2022-07-30T08:40:17;8.25;;;3.53;;
70169;SDS011;57543;45.442;9.212;2022-07-30T08:43:30;7.97;;;3.85;;
70169;SDS011;57543;45.442;9.212;2022-07-30T08:46:41;9.35;;;4.00;;
70169;SDS011;57543;45.442;9.212;2022-07-30T08:49:57;5.63;;;3.35;;
70169;SDS011;57543;45.442;9.212;2022-07-30T08:53:11;4.80;;;2.92;;
70169;SDS011;57543;45.442;9.212;2022-07-30T08:56:16;6.55;;;3.38;;
70169;SDS011;57543;45.442;9.212;2022-07-30T08:59:22;6.75;;;2.70;;
70169;SDS011;57543;45.442;9.212;2022-07-30T09:02:26;6.25;;;3.10;;
70169;SDS011;57543;45.442;9.212;2022-07-30T09:05:39;6.43;;;2.90;;
70169;SDS011;57543;45.442;9.212;2022-07-30T09:08:43;6.63;;;2.95;;
70169;SDS011;57543;45.442;9.212;2022-07-30T09:11:48;7.07;;;2.80;;
70169;SDS011;57543;45.442;9.212;2022-07-30T09:15:04;5.38;;;2.60;;
70169;SDS011;57543;45.442;9.212;2022-07-30T09:18:28;4.80;;;2.50;;
70169;SDS011;57543;45.442;9.212;2022-07-30T09:21:35;5.07;;;2.42;;
70169;SDS011;57543;45.442;9.212;2022-07-30T09:24:58;6.00;;;2.60;;
70169;SDS011;57543;45.442;9.212;2022-07-30T09:28:28;4.88;;;2.65;;
70169;SDS011;57543;45.442;9.212;2022-07-30T09:35:18;5.57;;;3.03;;
70169;SDS011;57543;45.442;9.212;2022-07-30T09:42:22;6.63;;;3.25;;
70169;SDS011;57543;45.442;9.212;2022-07-30T09:45:29;5.43;;;2.70;;
70169;SDS011;57543;45.442;9.212;2022-07-30T09:48:33;5.05;;;2.80;;
70169;SDS011;57543;45.442;9.212;2022-07-30T09:51:37;5.60;;;2.92;;
70169;SDS011;57543;45.442;9.212;2022-07-30T09:54:48;8.43;;;3.30;;
70169;SDS011;57543;45.442;9.212;2022-07-30T09:57:54;5.28;;;2.97;;
70169;SDS011;57543;45.442;9.212;2022-07-30T10:01:03;5.63;;;2.90;;
70169;SDS011;57543;45.442;9.212;2022-07-30T10:04:29;6.35;;;3.10;;
70169;SDS011;57543;45.442;9.212;2022-07-30T10:07:48;10.55;;;3.97;;
70169;SDS011;57543;45.442;9.212;2022-07-30T10:10:57;7.95;;;3.90;;
70169;SDS011;57543;45.442;9.212;2022-07-30T10:14:00;6.15;;;3.10;;
70169;SDS011;57543;45.442;9.212;2022-07-30T10:17:06;5.63;;;3.00;;
70169;SDS011;57543;45.442;9.212;2022-07-30T10:20:11;8.63;;;3.20;;
70169;SDS011;57543;45.442;9.212;2022-07-30T10:23:35;5.45;;;2.88;;
70169;SDS011;57543;45.442;9.212;2022-07-30T10:27:15;7.05;;;3.63;;
70169;SDS011;57543;45.442;9.212;2022-07-30T10:30:28;6.63;;;3.55;;
70169;SDS011;57543;45.442;9.212;2022-07-30T10:33:32;6.43;;;3.75;;
70169;SDS011;57543;45.442;9.212;2022-07-30T10:36:39;6.82;;;4.00;;
70169;SDS011;57543;45.442;9.212;2022-07-30T10:39:46;7.90;;;4.18;;
70169;SDS011;57543;45.442;9.212;2022-07-30T10:49:34;5.10;;;3.35;;
70169;SDS011;57543;45.442;9.212;2022-07-30T10:56:11;6.55;;;3.38;;
70169;SDS011;57543;45.442;9.212;2022-07-30T10:59:17;6.68;;;3.75;;
70169;SDS011;57543;45.442;9.212;2022-07-30T11:02:21;5.80;;;3.47;;
70169;SDS011;57543;45.442;9.212;2022-07-30T11:05:25;6.32;;;2.90;;
70169;SDS011;57543;45.442;9.212;2022-07-30T11:08:35;5.72;;;3.58;;
70169;SDS011;57543;45.442;9.212;2022-07-30T11:11:41;5.68;;;3.10;;
70169;SDS011;57543;45.442;9.212;2022-07-30T11:17:57;6.47;;;3.25;;
70169;SDS011;57543;45.442;9.212;2022-07-30T11:21:16;7.75;;;4.80;;
70169;SDS011;57543;45.442;9.212;2022-07-30T11:24:42;7.15;;;4.38;;
70169;SDS011;57543;45.442;9.212;2022-07-30T11:27:47;7.57;;;3.90;;
70169;SDS011;57543;45.442;9.212;2022-07-30T11:30:52;8.48;;;4.75;;
70169;SDS011;57543;45.442;9.212;2022-07-30T11:37:19;8.27;;;3.95;;
70169;SDS011;57543;45.442;9.212;2022-07-30T11:40:24;5.55;;;3.70;;
70169;SDS011;57543;45.442;9.212;2022-07-30T11:43:29;5.80;;;4.28;;
70169;SDS011;57543;45.442;9.212;2022-07-30T11:46:46;7.00;;;3.80;;
70169;SDS011;57543;45.442;9.212;2022-07-30T11:49:51;5.20;;;3.80;;
70169;SDS011;57543;45.442;9.212;2022-07-30T11:52:57;7.90;;;5.05;;
70169;SDS011;57543;45.442;9.212;2022-07-30T11:56:01;6.45;;;4.05;;
70169;SDS011;57543;45.442;9.212;2022-07-30T11:59:06;6.72;;;4.03;;
70169;SDS011;57543;45.442;9.212;2022-07-30T12:02:10;6.22;;;3.70;;
70169;SDS011;57543;45.442;9.212;2022-07-30T12:05:14;6.15;;;3.58;;
70169;SDS011;57543;45.442;9.212;2022-07-30T12:08:19;5.30;;;3.70;;
70169;SDS011;57543;45.442;9.212;2022-07-30T12:11:24;6.28;;;3.55;;
70169;SDS011;57543;45.442;9.212;2022-07-30T12:14:37;5.68;;;3.22;;
70169;SDS011;57543;45.442;9.212;2022-07-30T12:17:42;5.32;;;2.90;;
70169;SDS011;57543;45.442;9.212;2022-07-30T12:20:51;11.35;;;4.45;;
70169;SDS011;57543;45.442;9.212;2022-07-30T12:23:57;6.38;;;4.10;;
70169;SDS011;57543;45.442;9.212;2022-07-30T12:27:06;5.07;;;3.50;;
70169;SDS011;57543;45.442;9.212;2022-07-30T12:30:10;6.10;;;3.78;;
70169;SDS011;57543;45.442;9.212;2022-07-30T12:33:14;6.18;;;3.60;;
70169;SDS011;57543;45.442;9.212;2022-07-30T12:36:25;4.68;;;3.20;;
70169;SDS011;57543;45.442;9.212;2022-07-30T12:39:31;5.43;;;3.50;;
70169;SDS011;57543;45.442;9.212;2022-07-30T12:42:35;5.50;;;3.35;;
70169;SDS011;57543;45.442;9.212;2022-07-30T12:45:41;5.72;;;3.63;;
70169;SDS011;57543;45.442;9.212;2022-07-30T12:49:04;5.90;;;3.80;;
70169;SDS011;57543;45.442;9.212;2022-07-30T12:52:09;6.95;;;4.00;;
70169;SDS011;57543;45.442;9.212;2022-07-30T12:55:13;6.90;;;3.75;;
70169;SDS011;57543;45.442;9.212;2022-07-30T12:58:16;6.03;;;3.40;;
70169;SDS011;57543;45.442;9.212;2022-07-30T13:04:50;5.32;;;2.88;;
70169;SDS011;57543;45.442;9.212;2022-07-30T13:07:57;7.50;;;2.95;;
70169;SDS011;57543;45.442;9.212;2022-07-30T13:11:01;7.15;;;4.15;;
70169;SDS011;57543;45.442;9.212;2022-07-30T13:14:06;6.22;;;3.47;;
70169;SDS011;57543;45.442;9.212;2022-07-30T13:17:09;5.63;;;3.13;;
70169;SDS011;57543;45.442;9.212;2022-07-30T13:20:14;4.65;;;3.10;;
70169;SDS011;57543;45.442;9.212;2022-07-30T13:23:18;4.68;;;3.13;;
70169;SDS011;57543;45.442;9.212;2022-07-30T13:26:22;5.47;;;3.50;;
70169;SDS011;57543;45.442;9.212;2022-07-30T13:29:26;5.10;;;3.35;;
70169;SDS011;57543;45.442;9.212;2022-07-30T13:32:30;5.57;;;3.40;;
70169;SDS011;57543;45.442;9.212;2022-07-30T13:35:33;5.45;;;3.08;;
70169;SDS011;57543;45.442;9.212;2022-07-30T13:38:37;4.80;;;3.53;;
70169;SDS011;57543;45.442;9.212;2022-07-30T13:41:41;6.05;;;3.50;;
70169;SDS011;57543;45.442;9.212;2022-07-30T13:44:44;5.82;;;3.30;;
70169;SDS011;57543;45.442;9.212;2022-07-30T13:47:48;5.20;;;3.55;;
70169;SDS011;57543;45.442;9.212;2022-07-30T13:50:52;6.80;;;3.35;;
70169;SDS011;57543;45.442;9.212;2022-07-30T13:53:56;5.22;;;3.55;;
70169;SDS011;57543;45.442;9.212;2022-07-30T13:57:00;4.45;;;3.20;;
70169;SDS011;57543;45.442;9.212;2022-07-30T14:00:04;5.78;;;3.60;;
70169;SDS011;57543;45.442;9.212;2022-07-30T14:03:10;5.53;;;3.35;;
70169;SDS011;57543;45.442;9.212;2022-07-30T14:06:15;6.82;;;3.78;;
70169;SDS011;57543;45.442;9.212;2022-07-30T14:09:19;5.90;;;3.40;;
70169;SDS011;57543;45.442;9.212;2022-07-30T14:12:23;4.57;;;3.20;;
70169;SDS011;57543;45.442;9.212;2022-07-30T14:15:28;5.57;;;3.13;;
70169;SDS011;57543;45.442;9.212;2022-07-30T14:18:35;4.85;;;3.40;;
70169;SDS011;57543;45.442;9.212;2022-07-30T14:21:38;4.40;;;2.90;;
70169;SDS011;57543;45.442;9.212;2022-07-30T14:24:42;5.00;;;3.20;;
70169;SDS011;57543;45.442;9.212;2022-07-30T14:27:46;5.50;;;3.50;;
70169;SDS011;57543;45.442;9.212;2022-07-30T14:30:50;5.45;;;3.33;;
70169;SDS011;57543;45.442;9.212;2022-07-30T14:33:53;4.82;;;3.30;;
70169;SDS011;57543;45.442;9.212;2022-07-30T14:36:57;4.65;;;3.05;;
70169;SDS011;57543;45.442;9.212;2022-07-30T14:40:00;5.15;;;3.40;;
70169;SDS011;57543;45.442;9.212;2022-07-30T14:43:04;5.32;;;3.30;;
70169;SDS011;57543;45.442;9.212;2022-07-30T14:46:08;5.00;;;2.90;;
70169;SDS011;57543;45.442;9.212;2022-07-30T14:49:12;5.85;;;3.03;;
70169;SDS011;57543;45.442;9.212;2022-07-30T14:52:17;5.65;;;3.00;;
70169;SDS011;57543;45.442;9.212;2022-07-30T14:55:21;6.43;;;3.20;;
70169;SDS011;57543;45.442;9.212;2022-07-30T14:58:25;6.13;;;2.92;;
70169;SDS011;57543;45.442;9.212;2022-07-30T15:01:29;4.88;;;3.00;;
70169;SDS011;57543;45.442;9.212;2022-07-30T15:04:33;5.13;;;3.10;;
70169;SDS011;57543;45.442;9.212;2022-07-30T15:07:37;7.90;;;2.78;;
70169;SDS011;57543;45.442;9.212;2022-07-30T15:10:41;5.50;;;2.80;;
70169;SDS011;57543;45.442;9.212;2022-07-30T15:13:44;4.82;;;3.20;;
70169;SDS011;57543;45.442;9.212;2022-07-30T15:16:48;5.30;;;2.70;;
70169;SDS011;57543;45.442;9.212;2022-07-30T15:19:52;7.10;;;2.83;;
70169;SDS011;57543;45.442;9.212;2022-07-30T15:22:56;6.45;;;2.70;;
70169;SDS011;57543;45.442;9.212;2022-07-30T15:26:00;5.13;;;2.97;;
70169;SDS011;57543;45.442;9.212;2022-07-30T15:29:03;4.43;;;2.58;;
70169;SDS011;57543;45.442;9.212;2022-07-30T15:32:07;6.22;;;2.60;;
70169;SDS011;57543;45.442;9.212;2022-07-30T15:35:11;4.10;;;2.50;;
70169;SDS011;57543;45.442;9.212;2022-07-30T15:38:15;3.65;;;2.17;;
70169;SDS011;57543;45.442;9.212;2022-07-30T15:41:18;6.57;;;2.60;;
70169;SDS011;57543;45.442;9.212;2022-07-30T15:44:23;4.57;;;2.40;;
70169;SDS011;57543;45.442;9.212;2022-07-30T15:47:27;3.90;;;2.22;;
70169;SDS011;57543;45.442;9.212;2022-07-30T15:50:31;4.10;;;2.30;;
70169;SDS011;57543;45.442;9.212;2022-07-30T15:53:35;4.65;;;2.30;;
70169;SDS011;57543;45.442;9.212;2022-07-30T15:56:39;4.43;;;2.47;;
70169;SDS011;57543;45.442;9.212;2022-07-30T15:59:43;3.67;;;2.25;;
70169;SDS011;57543;45.442;9.212;2022-07-30T16:02:47;4.75;;;2.78;;
70169;SDS011;57543;45.442;9.212;2022-07-30T16:05:52;3.78;;;2.30;;
70169;SDS011;57543;45.442;9.212;2022-07-30T16:08:56;3.53;;;2.13;;
70169;SDS011;57543;45.442;9.212;2022-07-30T16:12:01;5.70;;;2.70;;
70169;SDS011;57543;45.442;9.212;2022-07-30T16:15:06;4.57;;;2.08;;
70169;SDS011;57543;45.442;9.212;2022-07-30T16:18:10;4.00;;;2.03;;
70169;SDS011;57543;45.442;9.212;2022-07-30T16:21:13;4.50;;;2.00;;
70169;SDS011;57543;45.442;9.212;2022-07-30T16:24:17;4.78;;;2.55;;
70169;SDS011;57543;45.442;9.212;2022-07-30T16:27:21;4.82;;;2.50;;
70169;SDS011;57543;45.442;9.212;2022-07-30T16:30:25;4.75;;;2.05;;
70169;SDS011;57543;45.442;9.212;2022-07-30T16:33:29;4.13;;;2.20;;
70169;SDS011;57543;45.442;9.212;2022-07-30T16:36:32;4.63;;;2.05;;
70169;SDS011;57543;45.442;9.212;2022-07-30T16:39:36;4.45;;;2.25;;
70169;SDS011;57543;45.442;9.212;2022-07-30T16:42:40;3.30;;;1.90;;
70169;SDS011;57543;45.442;9.212;2022-07-30T16:45:43;4.32;;;1.90;;
70169;SDS011;57543;45.442;9.212;2022-07-30T16:48:47;4.30;;;2.15;;
70169;SDS011;57543;45.442;9.212;2022-07-30T16:51:51;3.78;;;2.13;;
70169;SDS011;57543;45.442;9.212;2022-07-30T16:54:56;3.97;;;2.10;;
70169;SDS011;57543;45.442;9.212;2022-07-30T16:58:00;4.20;;;2.28;;
70169;SDS011;57543;45.442;9.212;2022-07-30T17:01:04;3.90;;;2.40;;
70169;SDS011;57543;45.442;9.212;2022-07-30T17:04:07;4.97;;;2.17;;
70169;SDS011;57543;45.442;9.212;2022-07-30T17:07:11;3.80;;;2.00;;
70169;SDS011;57543;45.442;9.212;2022-07-30T17:10:15;4.07;;;2.20;;
70169;SDS011;57543;45.442;9.212;2022-07-30T17:13:19;6.25;;;2.20;;
70169;SDS011;57543;45.442;9.212;2022-07-30T17:16:23;5.75;;;3.53;;
70169;SDS011;57543;45.442;9.212;2022-07-30T17:19:28;3.50;;;1.90;;
70169;SDS011;57543;45.442;9.212;2022-07-30T17:22:32;3.53;;;1.67;;
70169;SDS011;57543;45.442;9.212;2022-07-30T17:25:35;4.15;;;1.77;;
70169;SDS011;57543;45.442;9.212;2022-07-30T17:28:39;3.25;;;1.88;;
70169;SDS011;57543;45.442;9.212;2022-07-30T17:31:43;4.18;;;1.90;;
70169;SDS011;57543;45.442;9.212;2022-07-30T17:34:48;4.03;;;1.80;;
70169;SDS011;57543;45.442;9.212;2022-07-30T17:37:52;4.10;;;2.13;;
70169;SDS011;57543;45.442;9.212;2022-07-30T17:40:56;5.07;;;1.90;;
70169;SDS011;57543;45.442;9.212;2022-07-30T17:43:59;4.28;;;1.80;;
70169;SDS011;57543;45.442;9.212;2022-07-30T17:47:04;4.20;;;1.90;;
70169;SDS011;57543;45.442;9.212;2022-07-30T17:50:07;4.03;;;1.75;;
70169;SDS011;57543;45.442;9.212;2022-07-30T17:53:11;3.20;;;1.60;;
70169;SDS011;57543;45.442;9.212;2022-07-30T17:56:15;3.03;;;1.40;;
70169;SDS011;57543;45.442;9.212;2022-07-30T17:59:19;3.33;;;1.10;;
70169;SDS011;57543;45.442;9.212;2022-07-30T18:02:23;3.10;;;1.10;;
70169;SDS011;57543;45.442;9.212;2022-07-30T18:05:27;2.80;;;1.08;;
70169;SDS011;57543;45.442;9.212;2022-07-30T18:08:30;3.22;;;1.42;;
70169;SDS011;57543;45.442;9.212;2022-07-30T18:11:36;3.33;;;1.60;;
70169;SDS011;57543;45.442;9.212;2022-07-30T18:14:40;4.25;;;1.80;;
70169;SDS011;57543;45.442;9.212;2022-07-30T18:17:44;2.92;;;1.30;;
70169;SDS011;57543;45.442;9.212;2022-07-30T18:20:48;3.63;;;1.20;;
70169;SDS011;57543;45.442;9.212;2022-07-30T18:23:51;3.35;;;1.30;;
70169;SDS011;57543;45.442;9.212;2022-07-30T18:26:55;4.00;;;1.35;;
70169;SDS011;57543;45.442;9.212;2022-07-30T18:30:00;2.90;;;1.30;;
70169;SDS011;57543;45.442;9.212;2022-07-30T18:33:04;4.18;;;1.50;;
70169;SDS011;57543;45.442;9.212;2022-07-30T18:36:08;3.15;;;1.55;;
70169;SDS011;57543;45.442;9.212;2022-07-30T18:39:13;3.30;;;1.60;;
70169;SDS011;57543;45.442;9.212;2022-07-30T18:42:16;4.40;;;1.67;;
70169;SDS011;57543;45.442;9.212;2022-07-30T18:45:19;4.50;;;2.25;;
70169;SDS011;57543;45.442;9.212;2022-07-30T18:48:24;4.13;;;2.00;;
70169;SDS011;57543;45.442;9.212;2022-07-30T18:51:28;4.78;;;1.80;;
70169;SDS011;57543;45.442;9.212;2022-07-30T18:54:32;3.85;;;1.80;;
70169;SDS011;57543;45.442;9.212;2022-07-30T18:57:37;4.43;;;1.70;;
70169;SDS011;57543;45.442;9.212;2022-07-30T19:00:41;4.10;;;1.80;;